Time;durP1;ratioP1;P1;durP2;ratioP2;P2;SDS_P1;SDS_P2;PMS_P1;PMS_P2;Temp;Humidity;BMP_temperature;BMP_pressure;BME280_temperature;BME280_humidity;BME280_pressure;Samples;Min_cycle;Max_cycle;Signal;HPM_P1;HPM_P2
2022/11/29 00:02:07;;;;;;;56.08;27.08;;;;;;;9.61;54.41;101305.31;4931016;28;98863;-66
2022/11/29 00:04:34;;;;;;;55.15;28.13;;;;;;;9.49;54.96;101302.94;4927536;28;99240;-65
2022/11/29 00:07:01;;;;;;;54.70;26.50;;;;;;;9.73;54.64;101307.66;4934853;28;96666;-66
2022/11/29 00:09:27;;;;;;;50.38;26.10;;;;;;;9.88;53.88;101307.31;4926253;28;97220;-66
2022/11/29 00:12:14;;;;;;;51.83;26.60;;;;;;;9.72;54.16;101302.41;4923983;28;100634;-67
2022/11/29 00:14:41;;;;;;;53.43;26.07;;;;;;;9.75;54.15;101308.50;4931016;28;99106;-65
2022/11/29 00:17:08;;;;;;;46.65;25.73;;;;;;;9.48;54.54;101311.75;4929519;28;98512;-65
2022/11/29 00:19:36;;;;;;;51.53;25.95;;;;;;;9.64;54.28;101310.53;4929937;28;97009;-66
2022/11/29 00:22:03;;;;;;;55.80;26.45;;;;;;;9.67;54.11;101310.44;4929194;28;99289;-66
2022/11/29 00:24:31;;;;;;;51.05;25.77;;;;;;;9.32;55.33;101313.84;4927145;28;99298;-66
2022/11/29 00:26:59;;;;;;;50.38;24.67;;;;;;;9.54;54.79;101319.53;4926845;28;96761;-65
2022/11/29 00:29:27;;;;;;;47.80;25.08;;;;;;;9.67;54.27;101314.84;4928714;28;97024;-66
2022/11/29 00:31:54;;;;;;;51.85;24.80;;;;;;;9.47;54.88;101315.28;4928550;28;99224;-66
2022/11/29 00:34:20;;;;;;;49.03;25.48;;;;;;;9.62;54.58;101316.72;4929591;28;99158;-67
2022/11/29 00:36:47;;;;;;;45.80;24.92;;;;;;;9.57;54.51;101315.06;4931270;28;98089;-65
2022/11/29 00:39:15;;;;;;;50.95;24.50;;;;;;;9.60;54.47;101316.75;4929826;28;96931;-66
2022/11/29 00:41:41;;;;;;;51.42;24.60;;;;;;;9.56;54.15;101310.69;4930523;28;101331;-66
2022/11/29 00:44:10;;;;;;;48.22;24.92;;;;;;;9.39;54.60;101322.50;4931250;28;99502;-66
2022/11/29 00:46:37;;;;;;;50.30;25.50;;;;;;;9.57;54.33;101311.56;4929927;28;96831;-65
2022/11/29 00:49:04;;;;;;;46.08;23.75;;;;;;;9.56;54.78;101315.97;4923686;28;97020;-65
2022/11/29 00:51:32;;;;;;;47.80;23.88;;;;;;;9.51;54.72;101317.84;4929565;28;98919;-66
2022/11/29 00:53:58;;;;;;;50.42;25.17;;;;;;;9.34;55.14;101313.81;4923167;28;98860;-67
2022/11/29 00:56:25;;;;;;;46.90;24.52;;;;;;;9.28;55.14;101317.47;4932824;28;96859;-65
2022/11/29 00:58:52;;;;;;;51.60;25.73;;;;;;;9.43;55.04;101313.63;4923285;28;96872;-65
2022/11/29 01:01:20;;;;;;;46.30;24.42;;;;;;;9.39;54.71;101320.72;4927746;28;98882;-65
2022/11/29 01:03:46;;;;;;;49.92;24.98;;;;;;;9.15;55.30;101327.41;4925608;28;98843;-66
2022/11/29 01:06:15;;;;;;;50.17;24.50;;;;;;;9.23;55.14;101316.69;4930255;28;98731;-67
2022/11/29 01:08:44;;;;;;;55.22;26.27;;;;;;;9.58;54.31;101318.59;4931625;28;97225;-67
2022/11/29 01:11:13;;;;;;;48.67;25.10;;;;;;;9.56;54.48;101315.97;4931323;28;98995;-65
2022/11/29 01:13:41;;;;;;;48.40;24.67;;;;;;;9.25;55.35;101314.03;4929900;28;98266;-64
2022/11/29 01:16:08;;;;;;;50.67;24.40;;;;;;;9.16;55.53;101315.97;4923759;28;97195;-65
2022/11/29 01:18:36;;;;;;;46.08;24.42;;;;;;;9.08;55.56;101309.97;4929437;28;98209;-65
2022/11/29 01:21:05;;;;;;;48.42;24.67;;;;;;;9.37;55.04;101316.41;4925665;28;98922;-66
2022/11/29 01:23:32;;;;;;;48.63;24.67;;;;;;;9.42;55.21;101319.81;4925096;28;99482;-71
2022/11/29 01:26:00;;;;;;;47.13;24.65;;;;;;;9.66;54.54;101316.63;4921904;28;98245;-66
2022/11/29 01:28:28;;;;;;;48.42;24.58;;;;;;;9.10;55.51;101313.44;4929537;28;99033;-72
2022/11/29 01:30:54;;;;;;;50.03;25.05;;;;;;;9.41;54.71;101318.06;4924818;28;98453;-65
2022/11/29 01:33:21;;;;;;;47.13;24.73;;;;;;;9.39;54.95;101318.09;4928208;28;99143;-65
2022/11/29 01:35:51;;;;;;;46.47;23.70;;;;;;;9.41;55.05;101315.44;4929447;28;98766;-65
2022/11/29 01:38:18;;;;;;;54.58;26.55;;;;;;;9.28;55.32;101321.88;4931541;28;97263;-68
2022/11/29 01:40:44;;;;;;;48.78;24.75;;;;;;;9.46;54.56;101317.06;4927401;28;99157;-67
2022/11/29 01:43:16;;;;;;;52.17;25.83;;;;;;;9.64;54.65;101323.72;4928879;28;97798;-66
2022/11/29 01:45:44;;;;;;;48.83;24.13;;;;;;;9.62;54.24;101314.97;4929432;28;97189;-66
2022/11/29 01:48:12;;;;;;;51.53;24.58;;;;;;;9.49;54.70;101313.50;4929559;28;96831;-66
2022/11/29 01:50:40;;;;;;;49.15;25.45;;;;;;;9.34;55.09;101316.47;4926337;28;97991;-66
2022/11/29 01:53:11;;;;;;;51.65;24.42;;;;;;;9.41;55.04;101315.44;4926480;28;98414;-66
2022/11/29 01:55:41;;;;;;;48.50;24.55;;;;;;;9.57;54.55;101314.22;4929943;28;96814;-68
2022/11/29 01:58:08;;;;;;;53.80;25.33;;;;;;;9.32;55.08;101313.84;4928620;28;97270;-64
2022/11/29 02:00:35;;;;;;;49.33;24.42;;;;;;;9.51;54.58;101317.84;4925717;28;101478;-66
2022/11/29 02:03:07;;;;;;;49.53;25.40;;;;;;;9.72;54.53;101315.59;4928792;28;99432;-66
2022/11/29 02:05:34;;;;;;;51.50;24.70;;;;;;;9.58;54.34;101316.78;4925074;28;97078;-66
2022/11/29 02:08:01;;;;;;;49.67;24.35;;;;;;;9.50;54.64;101321.38;4930381;28;97683;-66
2022/11/29 02:10:44;;;;;;;49.10;24.48;;;;;;;9.58;54.25;101313.31;4924433;28;98949;-66
2022/11/29 02:13:17;;;;;;;46.70;24.05;;;;;;;9.67;54.41;101321.00;4934043;28;99226;-65
2022/11/29 02:15:53;;;;;;;55.22;24.75;;;;;;;9.89;53.38;101316.09;4924867;28;96713;-66
2022/11/29 02:18:28;;;;;;;50.40;24.85;;;;;;;9.82;53.56;101311.88;4936505;28;96686;-66
2022/11/29 02:21:34;;;;;;;50.00;24.45;;;;;;;9.86;53.24;101314.38;4931574;28;99272;-65
2022/11/29 02:24:43;;;;;;;52.40;25.98;;;;;;;9.64;54.16;101317.56;4917942;28;98792;-65
2022/11/29 02:27:46;;;;;;;53.30;26.17;;;;;;;10.00;52.97;101314.94;4925016;28;96844;-66
2022/11/29 02:30:19;;;;;;;50.17;24.75;;;;;;;9.77;53.73;101319.91;4929057;28;99011;-66
2022/11/29 02:33:22;;;;;;;51.35;25.70;;;;;;;9.62;54.51;101325.53;4927537;28;99102;-66
2022/11/29 02:36:07;;;;;;;50.35;25.38;;;;;;;9.56;54.65;101330.94;4927573;28;97632;-65
2022/11/29 02:38:53;;;;;;;49.38;25.00;;;;;;;9.76;53.94;101323.44;4931264;28;96769;-67
2022/11/29 02:41:38;;;;;;;48.88;25.50;;;;;;;9.47;54.25;101331.13;4926950;28;97842;-68
2022/11/29 02:44:36;;;;;;;50.75;24.95;;;;;;;9.70;53.74;101328.84;4933109;28;99466;-65
2022/11/29 02:47:13;;;;;;;51.85;25.60;;;;;;;9.90;53.20;101331.91;4928577;28;101085;-66
2022/11/29 02:50:00;;;;;;;51.47;25.02;;;;;;;9.90;53.57;101329.28;4923559;28;96828;-66
2022/11/29 02:52:36;;;;;;;52.63;25.50;;;;;;;9.61;53.85;101336.97;4931543;28;97687;-66
2022/11/29 02:55:12;;;;;;;53.70;27.20;;;;;;;9.76;54.07;101338.41;4922013;28;99342;-66
2022/11/29 02:57:46;;;;;;;52.42;25.35;;;;;;;9.65;54.47;101336.00;4931877;28;99127;-65
2022/11/29 03:00:15;;;;;;;56.15;27.27;;;;;;;9.97;53.80;101336.16;4933342;28;96882;-66
2022/11/29 03:02:50;;;;;;;51.30;25.85;;;;;;;9.90;54.17;101331.03;4927826;28;97454;-66
2022/11/29 03:05:22;;;;;;;57.38;26.98;;;;;;;9.75;54.58;101336.66;4925516;28;99007;-66
2022/11/29 03:07:58;;;;;;;56.53;26.83;;;;;;;9.88;54.01;101338.13;4929711;28;99569;-66
2022/11/29 03:10:33;;;;;;;53.95;26.00;;;;;;;9.70;54.93;101339.41;4921784;28;96852;-66
2022/11/29 03:13:01;;;;;;;55.03;26.52;;;;;;;9.70;54.56;101339.41;4923236;28;96775;-65
2022/11/29 03:15:31;;;;;;;57.97;25.92;;;;;;;9.72;55.21;101340.22;4924542;28;97832;-66
2022/11/29 03:18:09;;;;;;;47.95;24.48;;;;;;;9.57;55.42;101349.38;4930088;28;99292;-68
2022/11/29 03:20:45;;;;;;;53.28;27.02;;;;;;;9.42;55.78;101343.53;4924616;28;97744;-67
2022/11/29 03:23:23;;;;;;;58.85;28.38;;;;;;;9.50;55.48;101352.19;4932554;28;97290;-66
2022/11/29 03:25:55;;;;;;;57.35;27.17;;;;;;;9.50;55.65;101347.78;4929852;28;99463;-65
2022/11/29 03:28:26;;;;;;;54.33;27.13;;;;;;;9.68;55.40;101346.50;4929286;28;98915;-66
2022/11/29 03:30:58;;;;;;;49.70;26.92;;;;;;;9.58;55.49;101351.09;4927847;28;96943;-65
2022/11/29 03:33:32;;;;;;;54.38;26.25;;;;;;;9.51;55.57;101352.16;4922195;28;96803;-66
2022/11/29 03:36:04;;;;;;;57.28;26.58;;;;;;;9.43;56.17;101355.84;4924949;28;98952;-66
2022/11/29 03:38:39;;;;;;;56.42;25.95;;;;;;;9.31;56.30;101364.00;4929837;28;99003;-65
2022/11/29 03:41:17;;;;;;;56.35;27.55;;;;;;;9.58;55.36;101361.63;4930082;28;96866;-65
2022/11/29 03:43:50;;;;;;;55.25;27.50;;;;;;;9.37;56.07;101361.25;4925233;28;96801;-65
2022/11/29 03:46:25;;;;;;;52.30;26.30;;;;;;;9.50;55.66;101365.38;4930734;28;97947;-66
2022/11/29 03:48:57;;;;;;;53.67;26.38;;;;;;;9.37;55.56;101367.41;4928069;28;97804;-65
2022/11/29 03:51:36;;;;;;;54.30;26.85;;;;;;;9.38;55.98;101363.88;4925069;28;96846;-64
2022/11/29 03:54:10;;;;;;;55.95;27.55;;;;;;;9.49;55.54;101369.78;4929484;28;97134;-66
2022/11/29 03:56:39;;;;;;;55.35;28.10;;;;;;;9.58;55.57;101366.06;4929457;28;99330;-66
2022/11/29 03:59:14;;;;;;;57.58;27.75;;;;;;;9.55;55.29;101360.84;4928739;28;99031;-66
2022/11/29 04:02:26;;;;;;;55.13;26.38;;;;;;;9.61;55.31;101360.72;4924066;28;97154;-66
2022/11/29 04:05:25;;;;;;;56.80;27.63;;;;;;;9.55;55.65;101358.22;4881797;28;97075;-66
2022/11/29 04:08:09;;;;;;;61.33;28.40;;;;;;;9.39;55.83;101356.78;4892082;28;98982;-66
2022/11/29 04:11:05;;;;;;;53.40;25.63;;;;;;;9.37;55.84;101361.25;4922123;28;99003;-66
2022/11/29 04:14:00;;;;;;;51.25;27.08;;;;;;;9.26;56.08;101364.09;4927934;28;96899;-65
2022/11/29 04:16:55;;;;;;;58.88;27.77;;;;;;;9.39;56.09;101362.06;4926693;28;96995;-66
2022/11/29 04:19:59;;;;;;;53.45;26.58;;;;;;;9.44;55.68;101362.84;4931549;28;98858;-65
2022/11/29 04:22:56;;;;;;;54.47;26.63;;;;;;;9.30;55.95;101363.16;4923088;28;98917;-65
2022/11/29 04:25:39;;;;;;;54.70;27.08;;;;;;;9.34;55.87;101361.28;4931962;28;98455;-64
2022/11/29 04:28:32;;;;;;;51.13;25.92;;;;;;;9.19;56.05;101365.97;4926334;28;96814;-68
2022/11/29 04:31:07;;;;;;;57.55;28.30;;;;;;;9.41;55.84;101363.78;4929261;28;100785;-67
2022/11/29 04:33:57;;;;;;;53.90;27.25;;;;;;;9.35;55.79;101366.53;4929851;28;98773;-65
2022/11/29 04:36:47;;;;;;;51.72;26.95;;;;;;;9.33;56.14;101363.06;4929154;28;97311;-65
2022/11/29 04:39:31;;;;;;;56.38;26.95;;;;;;;9.44;55.66;101368.13;4922218;28;96774;-65
2022/11/29 04:42:41;;;;;;;54.53;26.60;;;;;;;9.16;56.01;101373.97;4924178;28;98959;-66
2022/11/29 04:45:36;;;;;;;54.20;27.23;;;;;;;9.23;56.31;101363.28;4924746;28;98977;-66
2022/11/29 04:48:18;;;;;;;55.70;27.17;;;;;;;9.34;55.88;101369.22;4927376;28;96809;-66
2022/11/29 04:50:55;;;;;;;58.08;26.70;;;;;;;9.21;56.25;101381.78;4929191;28;96758;-65
2022/11/29 04:53:35;;;;;;;57.28;27.60;;;;;;;9.37;56.41;101377.94;4923844;28;98882;-67
2022/11/29 04:56:13;;;;;;;62.45;28.73;;;;;;;9.50;55.71;101374.16;4924567;28;98965;-66
2022/11/29 04:58:46;;;;;;;51.80;26.42;;;;;;;9.36;56.26;101375.34;4930478;28;97557;-66
2022/11/29 05:01:23;;;;;;;52.05;26.33;;;;;;;9.36;55.74;101377.97;4927121;28;96843;-66
2022/11/29 05:03:58;;;;;;;57.70;27.58;;;;;;;9.31;56.11;101379.84;4928651;28;99300;-66
2022/11/29 05:06:32;;;;;;;57.83;28.55;;;;;;;9.25;56.20;101383.47;4925403;28;98843;-65
2022/11/29 05:09:07;;;;;;;57.90;27.42;;;;;;;9.53;55.51;101379.34;4927026;28;97354;-65
2022/11/29 05:11:59;;;;;;;58.22;27.83;;;;;;;9.47;55.93;101383.88;4928862;28;97111;-67
2022/11/29 05:14:37;;;;;;;54.70;27.65;;;;;;;9.44;55.31;101383.97;4930712;28;98997;-67
2022/11/29 05:17:24;;;;;;;52.38;25.48;;;;;;;9.31;56.16;101378.06;4926735;28;98837;-66
2022/11/29 05:20:03;;;;;;;58.15;27.35;;;;;;;9.17;56.34;101382.75;4926162;28;96986;-66
2022/11/29 05:22:37;;;;;;;52.03;26.50;;;;;;;9.62;55.62;101390.63;4927899;28;97359;-65
2022/11/29 05:25:25;;;;;;;57.28;27.52;;;;;;;9.53;55.36;101395.19;4925903;28;99182;-67
2022/11/29 05:27:57;;;;;;;50.13;27.58;;;;;;;9.56;55.26;101399.53;4926937;28;98889;-65
2022/11/29 05:30:32;;;;;;;59.38;28.23;;;;;;;9.66;54.96;101395.78;4931445;28;96906;-66
2022/11/29 05:33:11;;;;;;;54.50;26.67;;;;;;;9.91;54.61;101409.34;4927008;28;96876;-65
2022/11/29 05:35:51;;;;;;;56.35;27.67;;;;;;;9.65;54.54;101409.88;4927232;28;100617;-67
2022/11/29 05:38:35;;;;;;;51.75;26.92;;;;;;;9.78;54.59;101415.78;4922708;28;98878;-66
2022/11/29 05:41:16;;;;;;;56.38;27.35;;;;;;;9.58;55.08;101418.84;4926301;28;96755;-65
2022/11/29 05:43:51;;;;;;;60.17;27.13;;;;;;;9.69;54.98;101416.84;4923496;28;96802;-66
2022/11/29 05:46:24;;;;;;;57.15;26.60;;;;;;;9.86;54.70;101413.81;4923037;28;98982;-66
2022/11/29 05:48:58;;;;;;;58.10;27.13;;;;;;;9.81;54.33;101424.50;4915804;28;99540;-65
2022/11/29 05:51:38;;;;;;;53.13;25.95;;;;;;;9.53;55.16;101426.84;4922548;28;96953;-66
2022/11/29 05:54:17;;;;;;;53.17;26.58;;;;;;;9.75;54.38;101427.25;4927829;28;97011;-66
2022/11/29 05:57:00;;;;;;;57.28;27.55;;;;;;;9.61;54.65;101418.78;4923575;28;100573;-66
2022/11/29 05:59:29;;;;;;;55.42;27.27;;;;;;;9.60;54.78;101419.66;4924733;28;99213;-67
2022/11/29 06:02:05;;;;;;;60.45;27.48;;;;;;;9.77;54.57;101430.75;4927219;28;98904;-67
2022/11/29 06:04:51;;;;;;;55.47;26.80;;;;;;;9.73;54.48;101431.69;4928646;28;97044;-67
2022/11/29 06:07:26;;;;;;;56.25;26.92;;;;;;;9.67;54.66;101433.59;4920593;28;98992;-67
2022/11/29 06:09:57;;;;;;;53.22;28.15;;;;;;;9.29;55.51;101434.38;4916403;28;98879;-68
2022/11/29 06:12:25;;;;;;;55.47;27.85;;;;;;;9.59;55.37;101436.38;4918480;28;96933;-66
2022/11/29 06:15:27;;;;;;;52.45;26.85;;;;;;;9.43;55.33;101442.88;4924071;28;96956;-67
2022/11/29 06:18:07;;;;;;;55.80;27.15;;;;;;;9.39;55.63;101449.09;4884295;28;101176;-67
2022/11/29 06:21:24;;;;;;;52.15;26.35;;;;;;;9.41;55.50;101447.31;4925723;28;99535;-73
2022/11/29 06:24:19;;;;;;;52.97;26.77;;;;;;;9.55;55.31;101455.84;4916431;28;97808;-67
2022/11/29 06:27:33;;;;;;;53.58;26.80;;;;;;;9.48;55.14;101452.44;4928786;28;96851;-66
2022/11/29 06:30:05;;;;;;;54.85;26.13;;;;;;;9.67;54.81;101455.56;4922832;28;98910;-67
2022/11/29 06:33:05;;;;;;;55.40;26.77;;;;;;;9.61;55.10;101460.97;4930045;28;99345;-66
2022/11/29 06:35:50;;;;;;;51.45;27.27;;;;;;;9.47;55.49;101463.03;4917460;28;97105;-67
2022/11/29 06:41:16;;;;;;;55.40;26.27;;;;;;;9.51;55.32;101459.44;4926394;28;98498;-67
2022/11/29 06:43:44;;;;;;;55.08;27.20;;;;;;;9.56;55.43;101463.72;4927959;28;96805;-66
2022/11/29 06:46:18;;;;;;;54.17;26.10;;;;;;;9.54;55.35;101472.56;4931297;28;97661;-67
2022/11/29 06:48:55;;;;;;;56.30;26.40;;;;;;;9.50;55.20;101479.69;4932093;28;96979;-68
2022/11/29 06:54:31;;;;;;;64.85;26.92;;;;;;;9.55;55.06;101487.50;4924588;28;97239;-66
2022/11/29 06:57:11;;;;;;;50.70;25.90;;;;;;;9.38;55.71;101484.31;4926779;28;96734;-68
2022/11/29 06:59:50;;;;;;;57.15;27.02;;;;;;;9.44;55.60;101489.47;4923753;28;96839;-66
2022/11/29 07:02:41;;;;;;;53.60;26.67;;;;;;;9.46;55.31;101483.25;4935953;28;97641;-68
2022/11/29 07:05:15;;;;;;;54.53;27.27;;;;;;;9.47;55.48;101494.69;4927375;28;99613;-66
2022/11/29 07:07:42;;;;;;;59.72;27.77;;;;;;;9.64;55.02;101494.38;4933546;28;96810;-67
2022/11/29 07:10:17;;;;;;;59.47;27.98;;;;;;;9.64;54.87;101491.72;4929576;28;96749;-66
2022/11/29 07:12:47;;;;;;;70.53;26.55;;;;;;;9.62;55.17;101494.41;4932139;28;98981;-66
2022/11/29 07:15:17;;;;;;;54.47;26.05;;;;;;;9.50;55.50;101500.78;4931517;28;100337;-69
2022/11/29 07:17:55;;;;;;;61.85;27.38;;;;;;;9.57;54.83;101491.84;4924174;28;96850;-66
2022/11/29 07:20:30;;;;;;;54.25;26.15;;;;;;;9.54;55.31;101496.31;4936211;28;97302;-71
2022/11/29 07:23:07;;;;;;;51.60;25.55;;;;;;;9.67;54.88;101497.81;4927639;28;97930;-67
2022/11/29 07:25:44;;;;;;;54.42;26.30;;;;;;;9.67;54.70;101500.44;4925214;28;99185;-68
2022/11/29 07:28:24;;;;;;;59.38;26.38;;;;;;;9.64;54.94;101497.88;4930155;28;98631;-66
2022/11/29 07:30:57;;;;;;;57.67;26.77;;;;;;;9.78;54.88;101502.88;4930853;28;97197;-67
2022/11/29 07:33:33;;;;;;;53.17;25.27;;;;;;;9.94;54.32;101497.25;4925262;28;98498;-66
2022/11/29 07:36:17;;;;;;;56.38;27.00;;;;;;;9.69;54.99;101506.56;4929728;28;98947;-66
2022/11/29 07:38:56;;;;;;;52.10;25.55;;;;;;;10.03;54.20;101508.53;4927408;28;97443;-66
2022/11/29 07:41:36;;;;;;;53.67;26.05;;;;;;;9.75;54.71;101511.72;4924321;28;97291;-65
2022/11/29 07:44:10;;;;;;;55.88;26.60;;;;;;;9.81;54.97;101505.44;4936881;28;97930;-66
2022/11/29 07:46:37;;;;;;;53.10;27.02;;;;;;;9.52;54.60;101514.78;4933337;28;98827;-67
2022/11/29 07:49:03;;;;;;;56.88;26.15;;;;;;;9.38;55.70;101523.88;4929559;28;96844;-66
2022/11/29 07:51:31;;;;;;;56.67;27.05;;;;;;;9.58;55.83;101525.22;4930681;28;96822;-65
2022/11/29 07:53:58;;;;;;;58.53;26.58;;;;;;;10.02;54.25;101530.53;4935147;28;99210;-68
2022/11/29 07:56:26;;;;;;;54.17;26.23;;;;;;;9.97;54.96;101528.00;4933174;28;99926;-66
2022/11/29 07:58:52;;;;;;;53.83;26.65;;;;;;;9.89;54.48;101525.53;4928669;28;96877;-66
2022/11/29 08:01:19;;;;;;;56.10;27.15;;;;;;;9.91;54.62;101522.84;4928509;28;98652;-67
2022/11/29 08:03:45;;;;;;;60.85;28.52;;;;;;;9.92;54.83;101525.44;4928152;28;99015;-66
2022/11/29 08:06:16;;;;;;;69.60;29.95;;;;;;;9.98;55.12;101529.72;4934691;28;98855;-65
2022/11/29 08:08:46;;;;;;;70.70;28.40;;;;;;;10.15;54.63;101534.66;4934125;28;97057;-67
2022/11/29 08:11:14;;;;;;;58.78;27.85;;;;;;;10.27;54.23;101529.16;4939509;28;97213;-70
2022/11/29 08:13:42;;;;;;;51.58;25.88;;;;;;;10.18;53.75;101535.50;4934301;28;99778;-67
2022/11/29 08:16:14;;;;;;;52.28;25.58;;;;;;;10.28;53.93;101537.03;4931062;28;98922;-66
2022/11/29 08:18:47;;;;;;;56.72;27.67;;;;;;;10.14;53.54;101538.19;4926717;28;96768;-68
2022/11/29 08:21:16;;;;;;;47.95;25.05;;;;;;;10.35;53.04;101535.13;4923112;28;96768;-65
2022/11/29 08:23:43;;;;;;;57.40;25.00;;;;;;;10.39;52.76;101536.78;4933680;28;100214;-67
2022/11/29 08:26:10;;;;;;;55.40;26.55;;;;;;;10.20;53.17;101541.63;4924528;28;98170;-68
2022/11/29 08:28:37;;;;;;;54.08;25.73;;;;;;;10.28;53.30;101542.31;4934228;28;96755;-66
2022/11/29 08:31:08;;;;;;;53.75;26.88;;;;;;;10.21;53.33;101542.50;4934554;28;96896;-67
2022/11/29 08:33:36;;;;;;;49.72;24.92;;;;;;;10.22;53.38;101549.50;4933212;28;99003;-68
2022/11/29 08:36:06;;;;;;;52.67;26.30;;;;;;;10.32;53.24;101544.00;4930376;28;99048;-65
2022/11/29 08:38:33;;;;;;;50.55;25.40;;;;;;;10.02;53.44;101544.63;4931638;28;97256;-66
2022/11/29 08:41:01;;;;;;;55.92;25.05;;;;;;;10.42;53.25;101547.31;4921180;28;96861;-66
2022/11/29 08:43:28;;;;;;;52.28;24.80;;;;;;;10.55;52.45;101548.78;4929169;28;96883;-67
2022/11/29 08:45:55;;;;;;;54.40;25.20;;;;;;;10.44;52.78;101548.13;4934132;28;102091;-67
2022/11/29 08:48:23;;;;;;;57.17;25.75;;;;;;;10.10;53.04;101555.03;4933725;28;96878;-65
2022/11/29 08:50:50;;;;;;;56.40;25.88;;;;;;;10.43;53.55;101543.78;4929855;28;96819;-68
2022/11/29 08:56:00;;;;;;;51.90;25.38;;;;;;;10.64;52.92;101545.03;4928550;28;96952;-66
2022/11/29 08:58:27;;;;;;;49.58;25.52;;;;;;;10.73;52.37;101542.19;4928833;28;96816;-66
2022/11/29 09:00:54;;;;;;;51.25;25.65;;;;;;;10.69;52.74;101545.81;4931624;28;96909;-70
2022/11/29 09:06:08;;;;;;;47.60;24.67;;;;;;;10.85;51.69;101551.59;4926463;28;97252;-67
2022/11/29 09:08:34;;;;;;;51.15;28.20;;;;;;;10.70;52.06;101556.34;4930887;28;97317;-67
2022/11/29 09:11:28;;;;;;;61.58;25.95;;;;;;;10.89;51.84;101555.94;4928077;28;96916;-68
2022/11/29 09:13:57;;;;;;;54.17;26.15;;;;;;;10.84;51.91;101561.31;4919704;28;99579;-67
2022/11/29 09:16:25;;;;;;;60.78;25.75;;;;;;;10.86;51.69;101562.16;4931492;28;99097;-67
2022/11/29 09:18:54;;;;;;;53.65;25.48;;;;;;;11.02;51.36;101565.31;4931231;28;97475;-67
2022/11/29 09:21:24;;;;;;;54.75;24.83;;;;;;;11.06;51.79;101564.31;4927470;28;97587;-68
2022/11/29 09:23:57;;;;;;;50.53;25.88;;;;;;;11.02;51.18;101567.94;4927559;28;99801;-68
2022/11/29 09:26:24;;;;;;;58.45;25.40;;;;;;;11.19;51.02;101573.69;4925595;28;99154;-67
2022/11/29 09:28:50;;;;;;;48.75;24.90;;;;;;;11.29;50.99;101564.59;4929428;28;97438;-67
2022/11/29 09:31:18;;;;;;;54.10;25.35;;;;;;;11.31;50.72;101565.44;4930795;28;98460;-66
2022/11/29 09:33:45;;;;;;;50.38;23.88;;;;;;;11.27;51.01;101569.06;4927763;28;99641;-66
2022/11/29 09:36:13;;;;;;;54.67;25.48;;;;;;;11.29;50.44;101574.34;4925892;28;99097;-68
2022/11/29 09:38:41;;;;;;;57.45;23.98;;;;;;;11.41;50.55;101572.25;4928340;28;96916;-69
2022/11/29 09:41:22;;;;;;;52.13;24.67;;;;;;;11.62;49.62;101568.13;4927473;28;97246;-67
2022/11/29 09:43:55;;;;;;;54.75;25.52;;;;;;;11.29;50.88;101577.81;4927376;28;98300;-67
2022/11/29 09:46:34;;;;;;;48.70;24.83;;;;;;;11.55;50.33;101567.44;4931199;28;98660;-68
2022/11/29 09:49:22;;;;;;;47.40;24.27;;;;;;;11.36;50.40;101574.09;4932484;28;98033;-68
2022/11/29 09:51:55;;;;;;;49.60;25.38;;;;;;;11.59;50.34;101562.94;4925652;28;98712;-67
2022/11/29 09:54:35;;;;;;;46.97;24.63;;;;;;;11.57;49.89;101570.91;4929402;28;98963;-66
2022/11/29 09:57:06;;;;;;;59.00;25.38;;;;;;;11.44;50.78;101564.19;4930668;28;98986;-66
2022/11/29 09:59:38;;;;;;;50.72;25.50;;;;;;;11.65;50.24;101567.19;4931504;28;96952;-66
2022/11/29 10:02:16;;;;;;;53.05;25.15;;;;;;;11.45;50.57;101565.06;4926140;28;97326;-66
2022/11/29 10:04:47;;;;;;;47.53;23.65;;;;;;;11.66;50.36;101564.50;4927695;28;99228;-67
2022/11/29 10:07:20;;;;;;;54.92;24.27;;;;;;;11.67;50.05;101566.25;4923673;28;99265;-67
2022/11/29 10:09:52;;;;;;;53.67;25.35;;;;;;;11.39;50.72;101575.81;4927005;28;97268;-67
2022/11/29 10:12:31;;;;;;;50.88;27.15;;;;;;;11.48;50.78;101570.31;4931517;28;96838;-67
2022/11/29 10:15:07;;;;;;;50.92;25.75;;;;;;;11.64;50.28;101573.41;4925532;28;99344;-68
2022/11/29 10:17:38;;;;;;;46.23;23.30;;;;;;;11.60;50.09;101569.97;4930710;28;99247;-71
2022/11/29 10:20:12;;;;;;;50.42;26.05;;;;;;;11.51;50.55;101576.38;4927257;28;96787;-71
2022/11/29 10:22:48;;;;;;;57.60;24.35;;;;;;;11.60;50.04;101580.56;4930471;28;96843;-71
2022/11/29 10:25:23;;;;;;;47.40;24.35;;;;;;;11.62;50.05;101580.53;4925854;28;98999;-71
2022/11/29 10:27:50;;;;;;;50.30;25.20;;;;;;;11.75;50.06;101588.09;4931964;28;98167;-70
2022/11/29 10:30:17;;;;;;;49.80;23.58;;;;;;;11.46;50.48;101582.69;4935659;28;98771;-70
2022/11/29 10:32:46;;;;;;;49.42;25.10;;;;;;;11.38;51.01;101592.59;4932296;28;96984;-71
2022/11/29 10:35:15;;;;;;;49.05;24.73;;;;;;;11.40;50.89;101588.16;4928174;28;98869;-72
2022/11/29 10:37:41;;;;;;;47.53;24.42;;;;;;;11.31;51.10;101583.06;4930466;28;98690;-70
2022/11/29 10:40:14;;;;;;;48.95;25.30;;;;;;;11.40;50.79;101599.59;4935268;28;96886;-73
2022/11/29 10:42:49;;;;;;;45.47;24.40;;;;;;;11.43;50.82;101596.00;4926191;28;97172;-71
2022/11/29 10:45:20;;;;;;;55.20;25.83;;;;;;;11.06;51.29;101588.13;4929966;28;101654;-66
2022/11/29 10:47:49;;;;;;;58.22;26.67;;;;;;;11.35;51.10;101596.22;4927245;28;99211;-67
2022/11/29 10:50:20;;;;;;;53.80;26.05;;;;;;;11.32;50.89;101583.03;4934752;28;97136;-65
2022/11/29 10:52:47;;;;;;;51.40;25.75;;;;;;;11.34;51.15;101593.59;4933470;28;97185;-71
2022/11/29 10:55:15;;;;;;;51.45;26.75;;;;;;;11.42;50.91;101589.81;4927277;28;99282;-72
2022/11/29 10:58:14;;;;;;;55.25;25.90;;;;;;;11.40;50.67;101591.66;4929014;28;98814;-70
2022/11/29 11:00:53;;;;;;;49.30;25.98;;;;;;;11.29;50.90;101593.69;4931319;28;96866;-71
2022/11/29 11:03:30;;;;;;;51.55;26.85;;;;;;;11.46;50.54;101591.50;4931279;28;96999;-72
2022/11/29 11:06:00;;;;;;;48.95;25.55;;;;;;;11.43;50.79;101588.94;4931961;28;99472;-72
2022/11/29 11:08:28;;;;;;;57.25;26.45;;;;;;;11.49;50.54;101594.06;4930420;28;99222;-70
2022/11/29 11:10:55;;;;;;;55.58;25.05;;;;;;;11.29;51.13;101591.03;4932393;28;96888;-71
2022/11/29 11:13:25;;;;;;;58.13;27.42;;;;;;;11.43;50.95;101588.06;4933365;28;96925;-71
2022/11/29 11:15:57;;;;;;;52.97;26.55;;;;;;;11.41;50.83;101587.25;4928698;28;99398;-70
2022/11/29 11:18:27;;;;;;;54.67;27.48;;;;;;;11.15;51.57;101591.41;4931277;28;98600;-71
2022/11/29 11:20:57;;;;;;;51.13;25.40;;;;;;;11.46;50.95;101594.16;4925644;28;96763;-70
2022/11/29 11:23:26;;;;;;;52.17;25.65;;;;;;;11.39;51.03;101592.56;4929598;28;97175;-71
2022/11/29 11:25:59;;;;;;;54.55;26.67;;;;;;;11.52;50.80;101594.00;4930625;28;100012;-71
2022/11/29 11:28:29;;;;;;;54.83;26.60;;;;;;;11.46;50.76;101594.16;4928657;28;97701;-72
2022/11/29 11:30:58;;;;;;;52.60;25.88;;;;;;;11.64;50.72;101592.81;4931357;28;97054;-70
2022/11/29 11:33:28;;;;;;;56.00;28.17;;;;;;;11.43;51.04;101599.50;4929258;28;96900;-70
2022/11/29 11:36:05;;;;;;;57.15;27.33;;;;;;;11.47;50.41;101597.66;4927009;28;99374;-71
2022/11/29 11:38:33;;;;;;;62.40;28.27;;;;;;;11.42;50.80;101597.78;4930993;28;99101;-70
2022/11/29 11:41:06;;;;;;;51.25;27.08;;;;;;;11.35;50.89;101598.00;4929079;28;96872;-70
2022/11/29 11:43:34;;;;;;;52.92;26.98;;;;;;;11.38;50.98;101598.75;4930472;28;96815;-70
2022/11/29 11:46:01;;;;;;;52.65;25.85;;;;;;;11.46;50.77;101604.75;4924999;28;99343;-71
2022/11/29 11:48:27;;;;;;;54.53;27.98;;;;;;;11.35;50.96;101601.50;4926359;28;99314;-71
2022/11/29 11:50:56;;;;;;;56.70;26.83;;;;;;;11.35;50.91;101606.81;4924197;28;97972;-71
2022/11/29 11:53:26;;;;;;;54.05;26.63;;;;;;;11.24;51.05;101600.88;4922831;28;97061;-70
2022/11/29 11:55:59;;;;;;;57.22;26.80;;;;;;;11.35;51.03;101605.94;4928704;28;97668;-71
2022/11/29 11:58:28;;;;;;;58.08;27.55;;;;;;;11.53;50.63;101602.81;4928157;28;99411;-71
2022/11/29 12:00:58;;;;;;;57.55;27.70;;;;;;;11.50;50.43;101601.09;4932594;28;97133;-71